GMMX

Menara Airport

Marrakech, Morocco
METAR GMMX 220400Z 08003KT 9999 SCT023 06/05 Q1024
Observed Flight Rules
Jan-22 @ 04:00 UTC (17 minutes ago) Visual Flight Rules
Wind Visibility Clouds
80° at 3 knots 10,000+ meters
  • Scattered at 2,300' AGL
Temperatures Readings
Current 6°C / 43°F
Dewpoint 5°C / 41°F
Humidity 93%
Altimeter 30.24" Hg
Pressure 1023.92 hPa
Elevation 466
METAR GMMX 220400Z 08003KT 9999 SCT023 06/05 Q1024
Observed Flight Rules
Jan-22 @ 04:00 UTC
(17 minutes ago)
VFR
Wind Visibility
80° at 3 knots 10,000+ meters
Clouds
  • Scattered at 2,300' AGL
Temperature Dewpoint
6°C / 43°F 5°C / 41°F
Humidity Altimeter Pressure
93% 30.24" Hg 1023.92 hPa